Aviation Digital Data Service (ADDS)

Output produced by METARs form (0707 UTC 24 March 2019)
found at http://www.aviationweather.gov/metar/data/
 
K33N 240655Z AUTO 24004KT 10SM CLR 02/M06 A3024 RMK A01
KGED 240654Z AUTO 25004KT 10SM CLR 04/M05 A3025 RMK AO2 SLP245 T00391050
KILG 240651Z AUTO 26006KT 10SM CLR 03/M08 A3023 RMK AO2 SLP235 T00281078 $
KILG 240526Z 2406/2506 26006KT P6SM SKC 
     FM241600 23010G18KT P6SM SCT250 
     FM242300 21004KT P6SM BKN250 
     FM250400 VRB03KT P6SM BKN100